createdAt,value
2022-07-28T00:01:38.365Z,15.90
2022-07-28T00:04:05.379Z,15.80
2022-07-28T00:06:32.385Z,15.80
2022-07-28T00:09:00.379Z,15.80
2022-07-28T00:11:27.060Z,15.70
2022-07-28T00:13:54.276Z,15.70
2022-07-28T00:16:21.374Z,15.60
2022-07-28T00:18:48.105Z,15.60
2022-07-28T00:21:14.914Z,15.60
2022-07-28T00:23:41.796Z,15.50
2022-07-28T00:26:09.094Z,15.50
2022-07-28T00:28:36.995Z,15.40
2022-07-28T00:31:04.964Z,15.40
2022-07-28T00:33:34.845Z,15.40
2022-07-28T00:36:01.749Z,15.40
2022-07-28T00:38:28.732Z,15.30
2022-07-28T00:41:14.080Z,15.30
2022-07-28T00:43:42.718Z,15.30
2022-07-28T00:46:11.075Z,15.30
2022-07-28T00:48:46.902Z,15.20
2022-07-28T00:51:14.507Z,15.30
2022-07-28T00:53:42.161Z,15.30
2022-07-28T00:56:09.585Z,15.30
2022-07-28T00:58:37.237Z,15.30
2022-07-28T01:01:04.927Z,15.30
2022-07-28T01:03:32.681Z,15.30
2022-07-28T01:05:59.545Z,15.30
2022-07-28T01:08:50.868Z,15.30
2022-07-28T01:11:31.530Z,15.30
2022-07-28T01:14:01.825Z,15.30
2022-07-28T01:16:28.964Z,15.30
2022-07-28T01:19:04.451Z,15.20
2022-07-28T01:21:35.393Z,15.20
2022-07-28T01:24:21.278Z,15.20
2022-07-28T01:26:48.371Z,15.10
2022-07-28T01:29:40.613Z,15.10
2022-07-28T01:32:27.767Z,15.10
2022-07-28T01:34:57.851Z,15.00
2022-07-28T01:37:25.766Z,15.00
2022-07-28T01:39:54.397Z,14.90
2022-07-28T01:42:23.298Z,14.90
2022-07-28T01:44:52.012Z,14.90
2022-07-28T01:47:20.079Z,14.80
2022-07-28T01:49:50.038Z,14.80
2022-07-28T01:52:17.704Z,14.80
2022-07-28T01:54:45.711Z,14.80
2022-07-28T01:57:15.519Z,14.70
2022-07-28T01:59:42.909Z,14.70
2022-07-28T02:02:11.160Z,14.70
2022-07-28T02:04:39.269Z,14.60
2022-07-28T02:07:06.832Z,14.60
2022-07-28T02:09:34.428Z,14.60
2022-07-28T02:12:03.572Z,14.60
2022-07-28T02:14:30.549Z,14.60
2022-07-28T02:16:58.621Z,14.50
2022-07-28T02:19:26.499Z,14.50
2022-07-28T02:21:54.557Z,14.50
2022-07-28T02:24:23.220Z,14.50
2022-07-28T02:26:53.537Z,14.50
2022-07-28T02:29:49.232Z,14.40
2022-07-28T02:32:32.759Z,14.40
2022-07-28T02:35:03.345Z,14.40
2022-07-28T02:37:36.115Z,14.30
2022-07-28T02:40:04.156Z,14.30
2022-07-28T02:42:32.850Z,14.30
2022-07-28T02:45:00.847Z,14.30
2022-07-28T02:47:30.925Z,14.20
2022-07-28T02:49:58.496Z,14.20
2022-07-28T02:52:26.473Z,14.10
2022-07-28T02:54:54.078Z,14.10
2022-07-28T02:57:21.710Z,14.10
2022-07-28T02:59:50.302Z,14.00
2022-07-28T03:02:21.891Z,14.00
2022-07-28T03:04:59.443Z,13.90
2022-07-28T03:07:30.976Z,13.90
2022-07-28T03:09:58.849Z,13.90
2022-07-28T03:12:26.700Z,13.90
2022-07-28T03:14:53.818Z,13.80
2022-07-28T03:17:21.154Z,13.80
2022-07-28T03:19:49.231Z,13.80
2022-07-28T03:22:16.199Z,13.80
2022-07-28T03:24:47.242Z,13.80
2022-07-28T03:27:20.327Z,13.70
2022-07-28T03:29:49.907Z,13.70
2022-07-28T03:32:18.733Z,13.70
2022-07-28T03:34:45.489Z,13.60
2022-07-28T03:37:13.131Z,13.70
2022-07-28T03:39:48.256Z,13.60
2022-07-28T03:42:17.236Z,13.60
2022-07-28T03:44:45.642Z,13.60
2022-07-28T03:47:12.748Z,13.60
2022-07-28T03:49:40.380Z,13.60
2022-07-28T03:52:07.376Z,13.60
2022-07-28T03:54:34.144Z,13.60
2022-07-28T03:57:01.491Z,13.70
2022-07-28T03:59:28.484Z,13.70
2022-07-28T04:01:56.368Z,13.80
2022-07-28T04:04:25.186Z,13.80
2022-07-28T04:06:52.281Z,13.90
2022-07-28T04:09:19.395Z,13.90
2022-07-28T04:11:46.304Z,14.00
2022-07-28T04:14:16.928Z,14.10
2022-07-28T04:16:44.642Z,14.20
2022-07-28T04:19:11.690Z,14.30
2022-07-28T04:21:38.773Z,14.30
2022-07-28T04:24:05.919Z,14.50
2022-07-28T04:26:37.133Z,14.60
2022-07-28T04:29:10.622Z,14.80
2022-07-28T04:31:42.482Z,14.90
2022-07-28T04:34:10.031Z,15.10
2022-07-28T04:36:45.342Z,15.40
2022-07-28T04:39:17.536Z,15.60
2022-07-28T04:41:45.638Z,15.80
2022-07-28T04:44:12.774Z,15.90
2022-07-28T04:46:46.901Z,16.10
2022-07-28T04:49:13.835Z,16.20
2022-07-28T04:51:40.920Z,16.30
2022-07-28T04:54:12.081Z,16.30
2022-07-28T04:56:49.757Z,16.40
2022-07-28T04:59:17.039Z,16.40
2022-07-28T05:01:45.538Z,16.50
2022-07-28T05:04:14.168Z,16.50
2022-07-28T05:06:43.269Z,16.70
2022-07-28T05:09:10.048Z,16.80
2022-07-28T05:11:38.351Z,16.80
2022-07-28T05:14:05.445Z,16.80
2022-07-28T05:16:32.326Z,16.80
2022-07-28T05:19:01.306Z,16.80
2022-07-28T05:21:28.344Z,16.90
2022-07-28T05:23:56.186Z,16.90
2022-07-28T05:26:23.186Z,16.90
2022-07-28T05:28:50.531Z,17.10
2022-07-28T05:31:17.258Z,17.30
2022-07-28T05:33:44.531Z,17.50
2022-07-28T05:36:11.985Z,17.60
2022-07-28T05:38:39.451Z,17.70
2022-07-28T05:41:07.253Z,17.60
2022-07-28T05:43:38.353Z,17.70
2022-07-28T05:46:05.680Z,17.80
2022-07-28T05:48:32.975Z,17.80
2022-07-28T05:51:00.258Z,17.80
2022-07-28T05:53:26.981Z,18.10
2022-07-28T05:56:00.251Z,18.40
2022-07-28T05:58:28.475Z,18.90
2022-07-28T06:00:58.270Z,19.70
2022-07-28T06:03:25.320Z,20.30
2022-07-28T06:06:00.612Z,20.70
2022-07-28T06:08:41.094Z,21.10
2022-07-28T06:11:11.688Z,21.40
2022-07-28T06:13:39.188Z,21.30
2022-07-28T06:16:12.596Z,21.30
2022-07-28T06:18:40.418Z,21.30
2022-07-28T06:21:07.505Z,21.20
2022-07-28T06:23:34.520Z,21.10
2022-07-28T06:26:01.245Z,21.10
2022-07-28T06:28:27.944Z,21.30
2022-07-28T06:30:54.874Z,21.10
2022-07-28T06:33:21.595Z,21.20
2022-07-28T06:35:51.399Z,21.20
2022-07-28T06:38:20.610Z,21.10
2022-07-28T06:40:47.869Z,21.00
2022-07-28T06:43:15.086Z,21.00
2022-07-28T06:45:42.119Z,20.90
2022-07-28T06:48:09.038Z,21.10
2022-07-28T06:50:39.517Z,21.00
2022-07-28T06:53:11.075Z,21.00
2022-07-28T06:55:38.019Z,21.10
2022-07-28T06:58:14.327Z,21.00
2022-07-28T07:00:42.194Z,21.30
2022-07-28T07:03:09.826Z,21.50
2022-07-28T07:05:37.053Z,21.60
2022-07-28T07:08:05.075Z,21.70
2022-07-28T07:10:32.963Z,21.70
2022-07-28T07:13:00.279Z,21.80
2022-07-28T07:15:27.361Z,22.00
2022-07-28T07:17:54.304Z,22.10
2022-07-28T07:20:21.640Z,22.30
2022-07-28T07:22:48.648Z,22.30
2022-07-28T07:25:16.752Z,22.40
2022-07-28T07:27:44.581Z,22.40
2022-07-28T07:30:12.067Z,22.50
2022-07-28T07:32:38.832Z,22.70
2022-07-28T07:35:06.493Z,22.80
2022-07-28T07:37:33.422Z,22.90
2022-07-28T07:40:00.602Z,23.10
2022-07-28T07:42:28.569Z,23.00
2022-07-28T07:44:56.212Z,22.90
2022-07-28T07:47:23.186Z,22.80
2022-07-28T07:49:51.025Z,22.90
2022-07-28T07:52:18.214Z,22.90
2022-07-28T07:54:45.618Z,22.80
2022-07-28T07:57:14.533Z,23.00
2022-07-28T07:59:44.522Z,23.00
2022-07-28T08:02:11.379Z,23.30
2022-07-28T08:04:39.111Z,23.30
2022-07-28T08:07:07.244Z,23.50
2022-07-28T08:09:34.341Z,23.50
2022-07-28T08:12:01.486Z,23.30
2022-07-28T08:14:28.326Z,23.20
2022-07-28T08:16:56.801Z,23.10
2022-07-28T08:19:24.274Z,23.20
2022-07-28T08:21:51.473Z,23.30
2022-07-28T08:24:32.929Z,23.60
2022-07-28T08:27:01.614Z,23.80
2022-07-28T08:29:28.534Z,23.90
2022-07-28T08:31:55.449Z,23.80
2022-07-28T08:34:31.029Z,23.60
2022-07-28T08:37:04.442Z,23.70
2022-07-28T08:39:32.310Z,23.70
2022-07-28T08:41:59.761Z,23.90
2022-07-28T08:44:35.878Z,23.90
2022-07-28T08:47:03.178Z,23.90
2022-07-28T08:49:30.540Z,24.10
2022-07-28T08:51:58.097Z,24.10
2022-07-28T08:54:27.532Z,24.00
2022-07-28T08:56:55.137Z,24.20
2022-07-28T08:59:23.193Z,24.30
2022-07-28T09:01:55.461Z,24.30
2022-07-28T09:04:25.558Z,24.20
2022-07-28T09:06:52.615Z,24.00
2022-07-28T09:09:21.541Z,24.10
2022-07-28T09:11:48.441Z,24.00
2022-07-28T09:14:16.249Z,24.00
2022-07-28T09:16:44.547Z,23.90
2022-07-28T09:19:11.337Z,24.00
2022-07-28T09:21:38.691Z,24.10
2022-07-28T09:24:05.658Z,24.30
2022-07-28T09:26:32.771Z,24.40
2022-07-28T09:29:00.744Z,24.30
2022-07-28T09:31:28.445Z,24.40
2022-07-28T09:33:58.580Z,24.60
2022-07-28T09:36:25.443Z,24.70
2022-07-28T09:38:52.292Z,24.70
2022-07-28T09:41:21.950Z,24.80
2022-07-28T09:43:54.506Z,24.70
2022-07-28T09:46:26.247Z,24.60
2022-07-28T09:48:58.467Z,24.50
2022-07-28T09:51:27.323Z,24.40
2022-07-28T09:54:05.805Z,24.60
2022-07-28T09:56:34.554Z,24.60
2022-07-28T09:59:03.429Z,24.80
2022-07-28T10:01:36.675Z,24.90
2022-07-28T10:04:06.627Z,25.10
2022-07-28T10:06:34.399Z,25.10
2022-07-28T10:09:02.203Z,25.20
2022-07-28T10:11:30.596Z,25.30
2022-07-28T10:13:59.371Z,25.20
2022-07-28T10:16:35.932Z,25.30
2022-07-28T10:19:04.611Z,25.30
2022-07-28T10:21:31.933Z,25.10
2022-07-28T10:24:02.777Z,25.10
2022-07-28T10:26:33.660Z,25.20
2022-07-28T10:29:04.662Z,25.30
2022-07-28T10:31:40.341Z,25.40
2022-07-28T10:34:13.002Z,25.30
2022-07-28T10:36:43.322Z,25.30
2022-07-28T10:39:19.346Z,25.60
2022-07-28T10:41:46.369Z,25.80
2022-07-28T10:44:18.699Z,25.70
2022-07-28T10:46:46.685Z,25.50
2022-07-28T10:49:14.826Z,25.60
2022-07-28T10:52:06.255Z,25.60
2022-07-28T10:54:38.577Z,25.60
2022-07-28T10:57:11.093Z,25.60
2022-07-28T10:59:58.668Z,25.50
2022-07-28T11:02:45.521Z,25.50
2022-07-28T11:05:36.745Z,25.30
2022-07-28T11:08:05.627Z,25.60
2022-07-28T11:10:56.270Z,25.80
2022-07-28T11:13:33.039Z,26.00
2022-07-28T11:16:15.787Z,26.10
2022-07-28T11:19:01.771Z,26.10
2022-07-28T11:21:40.915Z,26.20
2022-07-28T11:24:10.781Z,26.10
2022-07-28T11:26:45.176Z,26.20
2022-07-28T11:29:12.423Z,26.20
2022-07-28T11:31:45.601Z,26.30
2022-07-28T11:34:22.593Z,26.50
2022-07-28T11:37:01.624Z,26.60
2022-07-28T11:39:43.067Z,26.70
2022-07-28T11:42:29.880Z,26.70
2022-07-28T11:45:18.291Z,26.70
2022-07-28T11:47:45.467Z,26.60
2022-07-28T11:50:13.251Z,26.50
2022-07-28T11:52:41.082Z,26.40
2022-07-28T11:55:08.385Z,26.30
2022-07-28T11:57:41.509Z,26.30
2022-07-28T12:00:08.649Z,26.30
2022-07-28T12:02:35.634Z,26.50
2022-07-28T12:05:05.833Z,26.50
2022-07-28T12:07:33.787Z,26.60
2022-07-28T12:10:01.103Z,26.80
2022-07-28T12:12:31.533Z,26.80
2022-07-28T12:15:04.808Z,26.80
2022-07-28T12:17:34.116Z,26.90
2022-07-28T12:20:06.114Z,27.00
2022-07-28T12:22:59.002Z,27.20
2022-07-28T12:25:26.351Z,27.20
2022-07-28T12:27:58.575Z,27.20
2022-07-28T12:30:33.184Z,27.30
2022-07-28T12:33:15.453Z,27.30
2022-07-28T12:35:42.281Z,27.30
2022-07-28T12:38:09.430Z,27.10
2022-07-28T12:40:40.181Z,27.20
2022-07-28T12:43:07.202Z,27.20
2022-07-28T12:45:43.814Z,27.20
2022-07-28T12:48:11.067Z,27.20
2022-07-28T12:50:38.785Z,27.30
2022-07-28T12:53:13.649Z,27.30
2022-07-28T12:55:43.121Z,27.40
2022-07-28T12:58:24.763Z,27.60
2022-07-28T13:00:53.277Z,27.60
2022-07-28T13:03:21.922Z,27.70
2022-07-28T13:06:04.323Z,27.70
2022-07-28T13:08:47.555Z,27.80
2022-07-28T13:11:42.802Z,27.90
2022-07-28T13:14:03.020Z,27.70
2022-07-28T13:16:30.294Z,27.50
2022-07-28T13:18:58.425Z,27.50
2022-07-28T13:21:58.305Z,27.40
2022-07-28T13:24:27.564Z,27.40
2022-07-28T13:26:54.695Z,27.30
2022-07-28T13:29:22.612Z,27.30
2022-07-28T13:31:49.923Z,27.40
2022-07-28T13:34:17.329Z,27.40
2022-07-28T13:36:44.610Z,27.50
2022-07-28T13:39:11.514Z,27.50
2022-07-28T13:41:57.744Z,27.50
2022-07-28T13:44:27.391Z,27.50
2022-07-28T13:46:55.348Z,27.60
2022-07-28T13:49:23.017Z,27.60
2022-07-28T13:51:51.172Z,27.60
2022-07-28T13:54:19.447Z,27.70
2022-07-28T13:56:47.075Z,27.60
2022-07-28T13:59:13.774Z,27.60
2022-07-28T14:01:42.445Z,27.60
2022-07-28T14:04:14.668Z,27.70
2022-07-28T14:06:45.245Z,27.70
2022-07-28T14:09:18.774Z,27.60
2022-07-28T14:11:49.837Z,27.70
2022-07-28T14:14:20.567Z,27.80
2022-07-28T14:16:55.173Z,27.80
2022-07-28T14:19:39.392Z,27.80
2022-07-28T14:22:13.755Z,27.80
2022-07-28T14:24:41.814Z,27.90
2022-07-28T14:27:08.514Z,28.00
2022-07-28T14:29:37.667Z,27.90
2022-07-28T14:32:04.658Z,27.90
2022-07-28T14:34:31.340Z,27.80
2022-07-28T14:37:03.480Z,27.70
2022-07-28T14:39:36.249Z,27.70
2022-07-28T14:42:04.560Z,27.70
2022-07-28T14:44:31.270Z,27.70
2022-07-28T14:46:58.060Z,27.70
2022-07-28T14:49:25.183Z,27.70
2022-07-28T14:51:52.190Z,27.70
2022-07-28T14:54:19.392Z,27.70
2022-07-28T14:56:47.153Z,27.70
2022-07-28T14:59:15.664Z,27.80
2022-07-28T15:01:42.404Z,27.80
2022-07-28T15:04:10.219Z,27.80
2022-07-28T15:06:37.272Z,27.80
2022-07-28T15:09:08.917Z,27.80
2022-07-28T15:11:35.953Z,27.80
2022-07-28T15:14:03.665Z,27.80
2022-07-28T15:16:30.925Z,27.90
2022-07-28T15:18:57.936Z,27.90
2022-07-28T15:21:24.917Z,27.90
2022-07-28T15:23:51.728Z,27.80
2022-07-28T15:26:19.155Z,27.80
2022-07-28T15:28:48.679Z,27.80
2022-07-28T15:31:17.732Z,27.70
2022-07-28T15:33:51.660Z,27.60
2022-07-28T15:36:26.211Z,27.70
2022-07-28T15:38:53.511Z,27.70
2022-07-28T15:41:20.616Z,27.60
2022-07-28T15:43:47.546Z,27.60
2022-07-28T15:46:14.851Z,27.60
2022-07-28T15:48:42.587Z,27.60
2022-07-28T15:51:09.799Z,27.60
2022-07-28T15:53:37.583Z,27.60
2022-07-28T15:56:04.767Z,27.60
2022-07-28T15:58:31.518Z,27.60
2022-07-28T16:01:00.955Z,27.60
2022-07-28T16:03:28.927Z,27.60
2022-07-28T16:05:55.728Z,27.60
2022-07-28T16:08:23.446Z,27.60
2022-07-28T16:10:52.921Z,27.60
2022-07-28T16:13:36.013Z,27.60
2022-07-28T16:16:05.508Z,27.60
2022-07-28T16:18:32.605Z,27.50
2022-07-28T16:20:59.562Z,27.50
2022-07-28T16:23:27.776Z,27.60
2022-07-28T16:25:54.890Z,27.40
2022-07-28T16:28:21.884Z,27.50
2022-07-28T16:30:49.060Z,27.40
2022-07-28T16:33:17.152Z,27.30
2022-07-28T16:35:44.321Z,27.30
2022-07-28T16:38:11.657Z,27.30
2022-07-28T16:40:39.952Z,27.30
2022-07-28T16:43:06.990Z,27.20
2022-07-28T16:45:34.265Z,27.30
2022-07-28T16:48:04.462Z,27.20
2022-07-28T16:50:31.804Z,27.20
2022-07-28T16:52:59.322Z,27.20
2022-07-28T16:55:27.629Z,27.20
2022-07-28T16:57:54.668Z,27.20
2022-07-28T17:00:21.683Z,27.20
2022-07-28T17:02:50.830Z,27.10
2022-07-28T17:05:17.639Z,27.00
2022-07-28T17:07:46.054Z,27.00
2022-07-28T17:10:14.280Z,27.00
2022-07-28T17:12:41.274Z,26.90
2022-07-28T17:15:22.129Z,26.90
2022-07-28T17:17:54.475Z,26.80
2022-07-28T17:20:21.948Z,26.80
2022-07-28T17:22:48.812Z,26.70
2022-07-28T17:25:45.837Z,26.70
2022-07-28T17:28:03.752Z,26.60
2022-07-28T17:30:33.121Z,26.60
2022-07-28T17:33:04.799Z,26.60
2022-07-28T17:35:39.399Z,26.50
2022-07-28T17:38:08.506Z,26.40
2022-07-28T17:40:36.800Z,26.40
2022-07-28T17:43:03.686Z,26.30
2022-07-28T17:45:30.675Z,26.30
2022-07-28T17:47:57.428Z,26.30
2022-07-28T17:50:24.446Z,26.20
2022-07-28T17:52:51.338Z,26.20
2022-07-28T17:55:57.705Z,26.10
2022-07-28T17:58:28.335Z,26.00
2022-07-28T18:00:57.999Z,26.00
2022-07-28T18:03:28.068Z,25.90
2022-07-28T18:05:56.878Z,25.90
2022-07-28T18:08:30.041Z,25.80
2022-07-28T18:10:56.808Z,25.70
2022-07-28T18:13:23.668Z,25.60
2022-07-28T18:15:50.661Z,25.60
2022-07-28T18:18:17.571Z,25.50
2022-07-28T18:20:44.577Z,25.40
2022-07-28T18:23:12.540Z,25.40
2022-07-28T18:25:43.462Z,25.40
2022-07-28T18:28:12.250Z,25.30
2022-07-28T18:30:39.763Z,25.30
2022-07-28T18:33:06.542Z,25.20
2022-07-28T18:35:33.651Z,25.10
2022-07-28T18:38:00.473Z,25.10
2022-07-28T18:40:28.832Z,25.00
2022-07-28T18:42:56.398Z,24.90
2022-07-28T18:45:24.950Z,24.80
2022-07-28T18:47:53.124Z,24.70
2022-07-28T18:50:31.125Z,24.60
2022-07-28T18:52:59.157Z,24.50
2022-07-28T18:55:26.177Z,24.40
2022-07-28T18:57:53.219Z,24.30
2022-07-28T19:00:20.971Z,24.20
2022-07-28T19:02:48.062Z,24.10
2022-07-28T19:05:14.909Z,24.00
2022-07-28T19:07:41.872Z,23.90
2022-07-28T19:10:09.592Z,23.80
2022-07-28T19:12:36.539Z,23.70
2022-07-28T19:15:03.858Z,23.60
2022-07-28T19:17:30.773Z,23.50
2022-07-28T19:19:59.447Z,23.40
2022-07-28T19:22:26.181Z,23.30
2022-07-28T19:24:53.334Z,23.30
2022-07-28T19:27:20.572Z,23.20
2022-07-28T19:29:47.419Z,23.20
2022-07-28T19:32:14.348Z,23.10
2022-07-28T19:34:42.983Z,23.10
2022-07-28T19:37:09.863Z,23.00
2022-07-28T19:39:45.957Z,23.00
2022-07-28T19:42:12.778Z,22.90
2022-07-28T19:44:39.960Z,22.90
2022-07-28T19:47:06.903Z,22.80
2022-07-28T19:49:35.338Z,22.80
2022-07-28T19:52:04.293Z,22.80
2022-07-28T19:54:31.268Z,22.70
2022-07-28T19:56:58.689Z,22.60
2022-07-28T19:59:26.070Z,22.50
2022-07-28T20:01:54.013Z,22.50
2022-07-28T20:04:24.485Z,22.40
2022-07-28T20:06:55.728Z,22.40
2022-07-28T20:09:22.847Z,22.30
2022-07-28T20:11:51.199Z,22.30
2022-07-28T20:14:36.760Z,22.30
2022-07-28T20:17:04.891Z,22.20
2022-07-28T20:19:31.975Z,22.10
2022-07-28T20:21:58.936Z,22.10
2022-07-28T20:24:25.709Z,22.00
2022-07-28T20:26:52.507Z,22.00
2022-07-28T20:29:20.455Z,21.90
2022-07-28T20:31:47.172Z,21.90
2022-07-28T20:34:15.235Z,21.80
2022-07-28T20:36:43.953Z,21.80
2022-07-28T20:39:27.871Z,21.80
2022-07-28T20:41:57.640Z,21.80
2022-07-28T20:44:30.208Z,21.70
2022-07-28T20:47:02.616Z,21.70
2022-07-28T20:49:31.452Z,21.60
2022-07-28T20:51:59.315Z,21.60
2022-07-28T20:54:26.619Z,21.60
2022-07-28T20:56:54.027Z,21.60
2022-07-28T20:59:20.933Z,21.60
2022-07-28T21:01:47.925Z,21.50
2022-07-28T21:04:16.956Z,21.50
2022-07-28T21:06:50.952Z,21.50
2022-07-28T21:09:19.079Z,21.40
2022-07-28T21:11:47.939Z,21.30
2022-07-28T21:14:16.172Z,21.30
2022-07-28T21:16:43.726Z,21.30
2022-07-28T21:19:10.749Z,21.30
2022-07-28T21:21:38.604Z,21.20
2022-07-28T21:24:06.101Z,21.20
2022-07-28T21:26:33.301Z,21.20
2022-07-28T21:29:12.488Z,21.10
2022-07-28T21:32:04.904Z,21.10
2022-07-28T21:34:27.589Z,21.00
2022-07-28T21:36:54.645Z,20.90
2022-07-28T21:39:21.720Z,20.90
2022-07-28T21:41:48.868Z,20.90
2022-07-28T21:44:16.090Z,20.80
2022-07-28T21:46:45.636Z,20.80
2022-07-28T21:49:13.364Z,20.70
2022-07-28T21:51:40.886Z,20.70
2022-07-28T21:54:07.756Z,20.60
2022-07-28T21:56:35.165Z,20.60
2022-07-28T21:59:02.881Z,20.50
2022-07-28T22:01:29.874Z,20.50
2022-07-28T22:03:57.300Z,20.50
2022-07-28T22:06:24.395Z,20.50
2022-07-28T22:08:54.173Z,20.50
2022-07-28T22:11:21.875Z,20.50
2022-07-28T22:13:50.914Z,20.50
2022-07-28T22:16:17.678Z,20.40
2022-07-28T22:18:48.789Z,20.50
2022-07-28T22:21:15.770Z,20.40
2022-07-28T22:23:42.591Z,20.40
2022-07-28T22:26:09.467Z,20.40
2022-07-28T22:28:36.490Z,20.40
2022-07-28T22:31:08.599Z,20.40
2022-07-28T22:33:38.399Z,20.40
2022-07-28T22:36:09.071Z,20.50
2022-07-28T22:38:36.182Z,20.50
2022-07-28T22:41:03.027Z,20.60
2022-07-28T22:43:33.651Z,20.70
2022-07-28T22:46:00.627Z,20.70
2022-07-28T22:48:27.685Z,20.80
2022-07-28T22:50:54.612Z,20.80
2022-07-28T22:53:21.754Z,20.80
2022-07-28T22:55:48.922Z,20.90
2022-07-28T22:58:15.954Z,20.90
2022-07-28T23:00:42.742Z,21.00
2022-07-28T23:03:13.256Z,21.00
2022-07-28T23:05:42.606Z,21.00
2022-07-28T23:08:09.337Z,21.00
2022-07-28T23:10:38.805Z,21.00
2022-07-28T23:13:05.733Z,21.00
2022-07-28T23:15:40.338Z,20.90
2022-07-28T23:18:11.770Z,20.90
2022-07-28T23:20:39.525Z,20.90
2022-07-28T23:23:06.914Z,20.90
2022-07-28T23:25:36.498Z,20.90
2022-07-28T23:28:03.505Z,20.80
2022-07-28T23:30:30.277Z,20.80
2022-07-28T23:32:57.322Z,20.80
2022-07-28T23:35:24.584Z,20.70
2022-07-28T23:37:52.352Z,20.70
2022-07-28T23:40:19.301Z,20.60
2022-07-28T23:42:46.345Z,20.50
2022-07-28T23:45:13.115Z,20.50
2022-07-28T23:47:40.282Z,20.50
2022-07-28T23:50:07.110Z,20.50
2022-07-28T23:52:35.929Z,20.40
2022-07-28T23:55:03.055Z,20.30
2022-07-28T23:57:31.049Z,20.30
